createdAt,value
2022-09-15T00:01:52.626Z,999.42
2022-09-15T00:07:27.833Z,999.33
2022-09-15T00:15:53.891Z,999.28
2022-09-15T00:21:29.876Z,999.25
2022-09-15T00:24:20.838Z,999.25
2022-09-15T00:29:56.961Z,999.28
2022-09-15T00:32:41.471Z,999.30
2022-09-15T00:38:16.624Z,999.33
2022-09-15T00:43:52.207Z,999.42
2022-09-15T00:49:27.589Z,999.42
2022-09-15T00:52:12.072Z,999.41
2022-09-15T00:57:47.620Z,999.38
2022-09-15T01:11:56.122Z,999.37
2022-09-15T01:17:32.244Z,999.39
2022-09-15T01:23:10.608Z,999.40
2022-09-15T01:28:53.041Z,999.45
2022-09-15T01:34:28.465Z,999.53
2022-09-15T01:40:08.734Z,999.49
2022-09-15T01:42:53.289Z,999.48
2022-09-15T01:48:28.624Z,999.48
2022-09-15T01:54:04.000Z,999.38
2022-09-15T01:59:39.231Z,999.34
2022-09-15T02:02:23.768Z,999.28
2022-09-15T02:07:59.194Z,999.24
2022-09-15T02:13:34.711Z,999.37
2022-09-15T02:19:10.026Z,999.27
2022-09-15T02:21:54.563Z,999.60
2022-09-15T02:27:32.782Z,999.51
2022-09-15T02:33:12.059Z,999.39
2022-09-15T02:38:48.290Z,999.45
2022-09-15T02:50:05.010Z,999.43
2022-09-15T02:52:49.689Z,999.45
2022-09-15T02:58:25.252Z,999.49
2022-09-15T03:04:00.611Z,999.50
2022-09-15T03:09:35.941Z,999.55
2022-09-15T03:12:20.382Z,999.45
2022-09-15T03:17:55.668Z,999.47
2022-09-15T03:23:30.961Z,999.45
2022-09-15T03:29:06.485Z,999.47
2022-09-15T03:31:51.182Z,999.53
2022-09-15T03:37:26.558Z,999.53
2022-09-15T03:43:01.874Z,999.55
2022-09-15T03:48:37.179Z,999.49
2022-09-15T03:57:03.398Z,999.46
2022-09-15T04:02:38.814Z,999.42
2022-09-15T04:08:14.178Z,999.47
2022-09-15T04:13:49.442Z,999.51
2022-09-15T04:19:24.813Z,999.53
2022-09-15T04:22:10.296Z,999.50
2022-09-15T04:27:48.494Z,999.46
2022-09-15T04:33:23.743Z,999.41
2022-09-15T04:36:08.246Z,999.46
2022-09-15T04:41:44.067Z,999.42
2022-09-15T04:47:19.374Z,999.33
2022-09-15T04:52:54.747Z,999.41
2022-09-15T04:58:30.052Z,999.44
2022-09-15T05:04:05.379Z,999.44
2022-09-15T05:09:40.726Z,999.44
2022-09-15T05:12:25.280Z,999.44
2022-09-15T05:18:00.666Z,999.40
2022-09-15T05:20:46.252Z,999.39
2022-09-15T05:23:30.881Z,999.40
2022-09-15T05:29:06.085Z,999.43
2022-09-15T05:31:50.720Z,999.46
2022-09-15T05:37:26.034Z,999.57
2022-09-15T05:43:01.304Z,999.62
2022-09-15T05:48:39.973Z,999.60
2022-09-15T05:54:15.346Z,999.63
2022-09-15T05:59:50.641Z,999.59
2022-09-15T06:02:35.221Z,999.56
2022-09-15T06:08:10.658Z,999.58
2022-09-15T06:13:50.015Z,999.60
2022-09-15T06:19:25.462Z,999.61
2022-09-15T06:25:00.935Z,999.56
2022-09-15T06:30:36.208Z,999.62
2022-09-15T06:33:20.715Z,999.61
2022-09-15T06:38:57.994Z,999.62
2022-09-15T06:44:33.430Z,999.59
2022-09-15T06:50:08.720Z,999.63
2022-09-15T06:52:53.235Z,999.63
2022-09-15T06:58:28.549Z,999.71
2022-09-15T07:04:04.904Z,999.78
2022-09-15T07:09:41.404Z,999.83
2022-09-15T07:12:26.441Z,999.86
2022-09-15T07:20:52.605Z,999.84
2022-09-15T07:23:37.113Z,999.93
2022-09-15T07:29:12.435Z,999.95
2022-09-15T07:31:57.279Z,999.95
2022-09-15T07:37:32.615Z,999.99
2022-09-15T07:43:07.966Z,1000.03
2022-09-15T07:48:43.270Z,1000.00
2022-09-15T07:57:09.451Z,1000.06
2022-09-15T08:02:44.944Z,1000.14
2022-09-15T08:08:20.251Z,1000.24
2022-09-15T08:13:56.613Z,1000.21
2022-09-15T08:22:22.586Z,1000.24
2022-09-15T08:27:57.940Z,1000.27
2022-09-15T08:33:33.138Z,1000.32
2022-09-15T08:39:08.521Z,1000.41
2022-09-15T08:44:44.841Z,1000.46
2022-09-15T08:50:20.115Z,1000.41
2022-09-15T08:53:05.573Z,1000.44
2022-09-15T08:58:40.866Z,1000.27
2022-09-15T09:04:18.330Z,1000.26
2022-09-15T09:09:55.677Z,1000.23
2022-09-15T09:12:43.687Z,1000.23
2022-09-15T09:18:19.198Z,1000.24
2022-09-15T09:23:54.547Z,1000.20
2022-09-15T09:29:29.815Z,1000.17
2022-09-15T09:32:16.049Z,1000.13
2022-09-15T09:37:53.036Z,1000.08
2022-09-15T09:40:38.649Z,1000.09
2022-09-15T09:43:23.197Z,1000.08
2022-09-15T09:48:58.492Z,1000.06
2022-09-15T09:54:34.038Z,1000.04
2022-09-15T10:00:09.364Z,1000.19
2022-09-15T10:02:54.011Z,1000.09
2022-09-15T10:08:29.594Z,1000.13
2022-09-15T10:11:16.579Z,1000.09
2022-09-15T10:14:01.300Z,1000.11
2022-09-15T10:19:38.889Z,1000.11
2022-09-15T10:22:23.573Z,1000.08
2022-09-15T10:27:58.966Z,999.94
2022-09-15T10:33:34.504Z,1000.00
2022-09-15T10:39:09.754Z,1000.00
2022-09-15T10:44:45.240Z,1000.01
2022-09-15T10:50:20.521Z,999.92
2022-09-15T10:53:05.228Z,999.89
2022-09-15T10:58:43.513Z,1000.02
2022-09-15T11:04:26.825Z,999.95
2022-09-15T11:10:02.178Z,999.95
2022-09-15T11:12:46.732Z,999.90
2022-09-15T11:18:22.053Z,999.89
2022-09-15T11:23:57.306Z,999.88
2022-09-15T11:29:33.439Z,999.90
2022-09-15T11:32:19.077Z,999.88
2022-09-15T11:37:59.182Z,999.84
2022-09-15T11:43:34.693Z,999.90
2022-09-15T11:52:00.769Z,999.85
2022-09-15T11:57:36.118Z,999.92
2022-09-15T12:03:13.540Z,999.93
2022-09-15T12:08:48.953Z,999.86
2022-09-15T12:14:24.325Z,999.85
2022-09-15T12:19:59.515Z,999.79
2022-09-15T12:22:44.040Z,999.87
2022-09-15T12:28:20.319Z,999.89
2022-09-15T12:33:55.710Z,999.87
2022-09-15T12:39:31.019Z,999.99
2022-09-15T12:42:15.622Z,999.98
2022-09-15T12:47:51.043Z,1000.01
2022-09-15T12:53:26.460Z,1000.01
2022-09-15T12:59:05.920Z,1000.01
2022-09-15T13:04:46.108Z,999.85
2022-09-15T13:10:21.472Z,999.67
2022-09-15T13:13:06.009Z,999.78
2022-09-15T13:18:41.202Z,999.71
2022-09-15T13:24:16.417Z,999.77
2022-09-15T13:29:51.674Z,999.86
2022-09-15T13:35:26.963Z,999.76
2022-09-15T13:43:53.173Z,999.57
2022-09-15T13:49:28.574Z,999.58
2022-09-15T13:55:03.874Z,999.56
2022-09-15T14:03:30.222Z,999.54
2022-09-15T14:09:06.570Z,999.52
2022-09-15T14:14:42.042Z,999.52
2022-09-15T14:20:17.385Z,999.47
2022-09-15T14:23:01.941Z,999.49
2022-09-15T14:28:37.229Z,999.59
2022-09-15T14:34:12.461Z,999.48
2022-09-15T14:36:57.049Z,999.51
2022-09-15T14:42:33.324Z,999.47
2022-09-15T14:48:08.655Z,999.51
2022-09-15T14:53:44.129Z,999.51
2022-09-15T14:56:28.715Z,999.50
2022-09-15T15:04:54.668Z,999.67
2022-09-15T15:07:39.155Z,999.55
2022-09-15T15:13:14.521Z,999.57
2022-09-15T15:21:43.319Z,999.59
2022-09-15T15:30:12.039Z,999.59
2022-09-15T15:35:47.338Z,999.59
2022-09-15T15:38:32.781Z,999.72
2022-09-15T15:41:20.723Z,999.82
2022-09-15T15:46:56.622Z,999.90
2022-09-15T15:52:32.038Z,999.87
2022-09-15T15:58:10.659Z,999.91
2022-09-15T16:03:47.749Z,999.96
2022-09-15T16:06:32.888Z,999.93
2022-09-15T16:17:50.111Z,999.81
2022-09-15T16:23:25.382Z,999.93
2022-09-15T16:29:00.943Z,999.95
2022-09-15T16:34:36.329Z,1000.03
2022-09-15T16:37:21.154Z,1000.05
2022-09-15T16:42:58.307Z,1000.21
2022-09-15T16:48:34.373Z,1000.28
2022-09-15T16:54:10.441Z,1000.28
2022-09-15T16:56:55.088Z,1000.21
2022-09-15T17:02:31.274Z,1000.10
2022-09-15T17:10:57.275Z,1000.05
2022-09-15T17:16:32.497Z,1000.22
2022-09-15T17:22:07.720Z,1000.16
2022-09-15T17:27:43.078Z,1000.19
2022-09-15T17:33:18.289Z,1000.17
2022-09-15T17:38:54.778Z,1000.25
2022-09-15T17:44:33.195Z,1000.31
2022-09-15T17:47:23.608Z,1000.27
2022-09-15T17:52:58.938Z,1000.38
2022-09-15T17:58:34.183Z,1000.30
2022-09-15T18:04:09.720Z,1000.33
2022-09-15T18:06:54.288Z,1000.32
2022-09-15T18:12:29.604Z,1000.35
2022-09-15T18:18:04.932Z,1000.40
2022-09-15T18:23:42.335Z,1000.46
2022-09-15T18:26:27.067Z,1000.46
2022-09-15T18:32:02.362Z,1000.41
2022-09-15T18:37:37.597Z,1000.53
2022-09-15T18:43:12.941Z,1000.57
2022-09-15T18:51:51.314Z,1000.52
2022-09-15T18:57:23.302Z,1000.53
2022-09-15T19:03:00.438Z,1000.56
2022-09-15T19:08:35.846Z,1000.57
2022-09-15T19:14:13.181Z,1000.63
2022-09-15T19:16:59.657Z,1000.62
2022-09-15T19:22:35.151Z,1000.59
2022-09-15T19:28:11.433Z,1000.63
2022-09-15T19:33:56.009Z,1000.64
2022-09-15T19:36:40.535Z,1000.70
2022-09-15T19:42:18.179Z,1000.70
2022-09-15T19:47:53.544Z,1000.66
2022-09-15T19:53:28.792Z,1000.63
2022-09-15T20:01:54.778Z,1000.60
2022-09-15T20:07:30.147Z,1000.66
2022-09-15T20:13:05.467Z,1000.76
2022-09-15T20:18:41.764Z,1000.88
2022-09-15T20:24:17.013Z,1000.91
2022-09-15T20:27:01.505Z,1000.93
2022-09-15T20:29:46.105Z,1000.89
2022-09-15T20:35:21.464Z,1000.93
2022-09-15T20:38:09.361Z,1000.87
2022-09-15T20:43:44.951Z,1000.87
2022-09-15T20:49:20.294Z,1000.86
2022-09-15T20:54:55.545Z,1000.91
2022-09-15T21:00:33.779Z,1000.91
2022-09-15T21:06:09.578Z,1000.85
2022-09-15T21:08:54.217Z,1000.90
2022-09-15T21:14:29.501Z,1000.87
2022-09-15T21:20:04.971Z,1000.92
2022-09-15T21:25:40.438Z,1000.95
2022-09-15T21:28:24.942Z,1000.96
2022-09-15T21:34:00.255Z,1001.00
2022-09-15T21:39:35.582Z,1001.01
2022-09-15T21:45:10.907Z,1001.04
2022-09-15T21:47:55.541Z,1001.07
2022-09-15T21:56:21.605Z,1001.16
2022-09-15T21:59:06.141Z,1001.17
2022-09-15T22:04:41.357Z,1001.25
2022-09-15T22:10:16.794Z,1001.35
2022-09-15T22:15:52.285Z,1001.38
2022-09-15T22:18:36.780Z,1001.38
2022-09-15T22:24:12.081Z,1001.41
2022-09-15T22:29:47.545Z,1001.44
2022-09-15T22:35:22.919Z,1001.45
2022-09-15T22:38:07.487Z,1001.43
2022-09-15T22:43:42.861Z,1001.40
2022-09-15T22:49:18.112Z,1001.45
2022-09-15T22:57:44.273Z,1001.55
2022-09-15T23:03:19.745Z,1001.58
2022-09-15T23:08:55.168Z,1001.50
2022-09-15T23:14:30.418Z,1001.48
2022-09-15T23:20:05.820Z,1001.52
2022-09-15T23:25:41.281Z,1001.48
2022-09-15T23:28:25.755Z,1001.54
2022-09-15T23:34:01.318Z,1001.56
2022-09-15T23:39:36.695Z,1001.53
2022-09-15T23:45:12.030Z,1001.49
2022-09-15T23:47:56.496Z,1001.51
2022-09-15T23:53:31.972Z,1001.55
2022-09-15T23:59:07.333Z,1001.53
